Time;durP1;ratioP1;P1;durP2;ratioP2;P2;SDS_P1;SDS_P2;PMS_P1;PMS_P2;Temp;Humidity;BMP_temperature;BMP_pressure;BME280_temperature;BME280_humidity;BME280_pressure;Samples;Min_cycle;Max_cycle;Signal;HPM_P1;HPM_P2
2023/08/10 00:01:07;;;;;;;2.05;1.60;;;;;;;24.03;51.88;101073.97;5031623;28;20474;-56
2023/08/10 00:03:33;;;;;;;2.42;1.65;;;;;;;23.85;51.74;101071.97;5032102;28;20034;-56
2023/08/10 00:06:00;;;;;;;1.88;1.52;;;;;;;23.82;51.82;101072.56;5031338;28;20067;-56
2023/08/10 00:08:26;;;;;;;3.45;2.10;;;;;;;23.21;52.47;101070.34;5031450;28;20034;-56
2023/08/10 00:10:52;;;;;;;2.38;2.17;;;;;;;23.61;52.19;101072.75;5031463;28;20467;-56
2023/08/10 00:13:18;;;;;;;2.78;2.22;;;;;;;22.63;54.03;101069.03;5031346;28;20049;-56
2023/08/10 00:15:45;;;;;;;2.67;1.98;;;;;;;22.78;54.17;101070.06;5048312;28;20033;-56
2023/08/10 00:18:11;;;;;;;2.60;2.40;;;;;;;22.00;57.35;101076.09;5051391;28;20036;-56
2023/08/10 00:20:40;;;;;;;2.40;2.00;;;;;;;22.18;55.95;101072.78;5051200;28;20029;-56
2023/08/10 00:23:06;;;;;;;2.75;2.10;;;;;;;22.20;56.33;101059.69;5032256;28;20041;-56
2023/08/10 00:25:33;;;;;;;6.68;2.40;;;;;;;21.71;57.19;101068.53;5043984;28;20552;-56
2023/08/10 00:27:59;;;;;;;4.50;2.50;;;;;;;21.43;58.11;101069.06;5037145;28;20049;-56
2023/08/10 00:30:25;;;;;;;3.75;2.35;;;;;;;21.44;57.42;101070.72;5049598;28;20060;-56
2023/08/10 00:32:52;;;;;;;2.33;2.13;;;;;;;21.31;58.13;101074.78;5043031;28;20044;-56
2023/08/10 00:35:18;;;;;;;4.90;2.50;;;;;;;20.46;60.30;101066.16;5041252;28;20071;-56
2023/08/10 00:37:46;;;;;;;2.88;2.33;;;;;;;20.50;61.13;101070.81;5043650;28;20034;-57
2023/08/10 00:40:12;;;;;;;3.72;2.10;;;;;;;20.80;60.67;101067.34;5038731;28;20081;-57
2023/08/10 00:42:42;;;;;;;2.53;2.30;;;;;;;20.49;60.53;101063.72;5036584;28;20457;-57
2023/08/10 00:45:09;;;;;;;2.20;2.00;;;;;;;20.44;60.70;101050.09;5036464;28;20087;-57
2023/08/10 00:47:36;;;;;;;5.35;2.33;;;;;;;20.23;61.21;101060.06;5053454;28;20036;-56
2023/08/10 00:50:03;;;;;;;2.65;2.45;;;;;;;20.28;62.03;101051.94;5037133;28;20088;-56
2023/08/10 00:52:31;;;;;;;3.28;2.13;;;;;;;20.04;63.08;101051.56;5034760;28;20031;-56
2023/08/10 00:54:58;;;;;;;2.78;2.17;;;;;;;19.96;63.76;101048.50;5045111;28;20040;-57
2023/08/10 00:57:25;;;;;;;2.53;1.83;;;;;;;19.96;62.86;101052.03;5050881;28;20040;-56
2023/08/10 00:59:52;;;;;;;2.20;1.95;;;;;;;19.86;63.70;101051.16;5053983;28;20029;-56
2023/08/10 01:02:18;;;;;;;3.17;1.92;;;;;;;19.30;64.82;101045.28;5045237;28;20029;-56
2023/08/10 01:04:45;;;;;;;2.53;1.77;;;;;;;19.23;65.37;101046.34;5043297;28;20025;-57
2023/08/10 01:07:20;;;;;;;1.77;1.67;;;;;;;19.08;65.58;101062.47;5053814;28;20025;-56
2023/08/10 01:09:59;;;;;;;3.67;1.95;;;;;;;19.00;66.52;101065.66;5047849;28;20025;-55
2023/08/10 01:13:02;;;;;;;2.28;1.98;;;;;;;18.78;67.29;101070.31;5035244;28;20048;-55
2023/08/10 01:15:34;;;;;;;7.57;1.90;;;;;;;18.64;67.73;101062.53;5054199;28;20033;-55
2023/08/10 01:18:03;;;;;;;1.40;1.30;;;;;;;18.52;68.51;101056.44;5053071;28;20086;-58
2023/08/10 01:20:31;;;;;;;2.58;1.35;;;;;;;18.55;68.10;101053.22;5053588;28;20075;-57
2023/08/10 01:22:57;;;;;;;1.35;1.25;;;;;;;18.54;67.63;101053.47;5043568;28;20105;-57
2023/08/10 01:25:27;;;;;;;2.38;1.73;;;;;;;18.57;67.54;101059.19;5033831;28;20040;-58
2023/08/10 01:27:54;;;;;;;1.80;1.40;;;;;;;18.56;67.71;101060.28;5033400;28;20025;-58
2023/08/10 01:30:20;;;;;;;3.63;1.75;;;;;;;18.09;69.24;101051.81;5033926;28;20028;-57
2023/08/10 01:32:47;;;;;;;1.90;1.70;;;;;;;18.00;70.05;101054.16;5033717;28;20025;-57
2023/08/10 01:35:14;;;;;;;2.42;2.00;;;;;;;17.82;71.14;101047.16;5054559;28;20020;-56
2023/08/10 01:37:40;;;;;;;2.67;1.90;;;;;;;17.78;71.42;101053.31;5053113;28;20028;-57
2023/08/10 01:40:08;;;;;;;1.92;1.83;;;;;;;17.73;72.07;101054.03;5058562;23;20029;-57
2023/08/10 01:42:34;;;;;;;2.53;2.05;;;;;;;17.61;72.18;101056.81;5084625;28;20031;-56
2023/08/10 01:45:03;;;;;;;2.22;2.03;;;;;;;17.14;73.90;101046.28;5091874;28;20393;-56
2023/08/10 01:47:44;;;;;;;2.40;1.95;;;;;;;16.95;75.16;101050.31;5090149;28;20020;-61
2023/08/10 01:50:12;;;;;;;3.28;1.77;;;;;;;16.99;75.36;101046.06;5093968;28;20051;-63
2023/08/10 01:52:46;;;;;;;2.20;1.88;;;;;;;16.70;76.57;101049.78;5096789;28;20169;-59
2023/08/10 01:55:14;;;;;;;2.90;2.45;;;;;;;16.71;77.31;101052.31;5099962;28;20029;-58
2023/08/10 01:57:40;;;;;;;4.03;2.13;;;;;;;16.67;77.37;101053.81;5091805;28;20023;-60
2023/08/10 02:00:07;;;;;;;2.00;1.73;;;;;;;16.76;76.99;101048.84;5093789;28;20036;-62
2023/08/10 02:02:35;;;;;;;3.22;2.83;;;;;;;16.36;79.05;101053.19;5093559;28;20032;-62
2023/08/10 02:05:01;;;;;;;2.50;2.30;;;;;;;16.33;80.04;101050.16;5093393;28;20071;-58
2023/08/10 02:07:28;;;;;;;3.38;2.47;;;;;;;16.54;79.28;101049.47;5092020;28;20032;-58
2023/08/10 02:09:54;;;;;;;2.28;2.08;;;;;;;16.80;77.80;101048.13;5098727;28;20028;-55
2023/08/10 02:12:20;;;;;;;2.75;2.53;;;;;;;16.58;78.74;101052.53;5092110;28;20047;-51
2023/08/10 02:14:47;;;;;;;2.63;2.10;;;;;;;16.88;78.12;101050.47;5072701;28;20508;-60
2023/08/10 02:17:13;;;;;;;3.70;2.42;;;;;;;16.89;77.63;101059.38;5078800;28;20029;-57
2023/08/10 02:19:40;;;;;;;4.32;2.30;;;;;;;16.74;77.95;101046.41;5092624;28;20393;-58
2023/08/10 02:22:06;;;;;;;2.92;2.60;;;;;;;16.42;78.89;101062.22;5091861;28;20028;-58
2023/08/10 02:24:33;;;;;;;3.38;2.90;;;;;;;16.54;78.56;101064.88;5093276;28;20020;-56
2023/08/10 02:26:59;;;;;;;4.18;3.13;;;;;;;16.46;79.07;101060.69;5099201;28;20106;-57
2023/08/10 02:29:26;;;;;;;5.07;3.60;;;;;;;16.71;78.64;101056.84;5113005;28;20023;-55
2023/08/10 02:31:52;;;;;;;4.65;3.67;;;;;;;16.68;78.42;101068.13;5098810;28;20024;-55
2023/08/10 02:34:19;;;;;;;4.45;3.63;;;;;;;16.84;77.93;101065.50;5092687;28;20032;-58
2023/08/10 02:36:45;;;;;;;4.90;4.25;;;;;;;16.80;78.11;101072.47;5092386;28;20426;-55
2023/08/10 02:39:11;;;;;;;4.53;3.85;;;;;;;16.67;78.59;101072.72;5092484;28;20497;-56
2023/08/10 02:41:37;;;;;;;6.40;4.78;;;;;;;16.48;80.20;101079.34;5091382;28;20562;-55
2023/08/10 02:44:04;;;;;;;5.93;4.97;;;;;;;16.44;80.34;101079.03;5099638;28;20080;-55
2023/08/10 02:46:30;;;;;;;5.78;4.70;;;;;;;16.33;81.01;101082.56;5112705;28;20019;-55
2023/08/10 02:48:56;;;;;;;5.40;4.28;;;;;;;16.22;81.39;101086.13;5083114;28;20051;-56
2023/08/10 02:51:23;;;;;;;6.00;5.38;;;;;;;15.67;83.55;101083.78;5091587;28;20043;-56
2023/08/10 02:53:49;;;;;;;7.07;4.93;;;;;;;15.70;83.93;101083.31;5092039;28;20053;-56
2023/08/10 02:56:15;;;;;;;6.03;4.25;;;;;;;15.83;82.99;101091.19;5089812;28;20059;-56
2023/08/10 02:58:42;;;;;;;7.25;4.85;;;;;;;15.43;85.19;101082.88;5089673;28;20056;-56
2023/08/10 03:01:09;;;;;;;5.22;4.32;;;;;;;15.53;85.26;101092.06;5085854;28;20027;-55
2023/08/10 03:03:35;;;;;;;8.00;5.55;;;;;;;14.94;88.10;101079.50;5073923;28;20394;-56
2023/08/10 03:06:02;;;;;;;5.22;4.13;;;;;;;15.18;87.43;101091.19;5087838;28;20358;-55
2023/08/10 03:08:29;;;;;;;7.43;5.93;;;;;;;15.13;87.13;101088.34;5087097;28;20032;-55
2023/08/10 03:10:55;;;;;;;5.93;5.32;;;;;;;15.01;88.24;101091.81;5084190;28;20080;-56
2023/08/10 03:13:21;;;;;;;5.95;5.35;;;;;;;15.11;87.59;101093.97;5088940;28;20428;-55
2023/08/10 03:15:47;;;;;;;6.13;4.97;;;;;;;15.10;87.87;101095.00;5088358;28;20457;-55
2023/08/10 03:18:13;;;;;;;4.32;3.75;;;;;;;15.14;87.29;101100.75;5074885;28;20082;-56
2023/08/10 03:20:40;;;;;;;6.55;4.95;;;;;;;15.09;87.44;101100.63;5072535;28;20090;-55
2023/08/10 03:23:06;;;;;;;4.75;4.22;;;;;;;15.01;87.97;101091.00;5072017;28;20028;-55
2023/08/10 03:25:34;;;;;;;5.28;4.45;;;;;;;14.88;89.63;101089.31;5071773;28;20049;-55
2023/08/10 03:28:01;;;;;;;6.15;5.20;;;;;;;14.98;89.59;101097.66;5071552;28;20028;-55
2023/08/10 03:30:27;;;;;;;6.22;4.65;;;;;;;14.94;89.36;101107.28;5071729;28;20056;-55
2023/08/10 03:32:53;;;;;;;6.00;5.10;;;;;;;14.92;89.37;101105.84;5071980;28;20410;-55
2023/08/10 03:35:20;;;;;;;6.60;4.53;;;;;;;14.97;89.12;101103.28;5074811;28;20017;-56
2023/08/10 03:37:46;;;;;;;5.35;4.00;;;;;;;15.10;88.85;101105.78;5091833;28;20032;-56
2023/08/10 03:40:12;;;;;;;5.18;3.85;;;;;;;14.89;89.85;101109.81;5100553;28;20027;-56
2023/08/10 03:42:38;;;;;;;5.15;4.38;;;;;;;14.89;89.80;101099.03;5091795;28;20044;-56
2023/08/10 03:45:07;;;;;;;5.28;4.22;;;;;;;14.87;90.16;101093.03;5084527;28;20028;-56
2023/08/10 03:47:33;;;;;;;3.83;3.45;;;;;;;14.88;90.22;101096.56;5080138;28;20024;-56
2023/08/10 03:50:00;;;;;;;5.93;3.60;;;;;;;14.75;91.37;101102.94;5091695;28;20026;-56
2023/08/10 03:52:26;;;;;;;5.25;4.07;;;;;;;14.74;90.83;101098.63;5098082;28;20035;-56
2023/08/10 03:54:52;;;;;;;5.47;4.03;;;;;;;14.84;90.45;101101.59;5091833;28;20030;-56
2023/08/10 03:57:18;;;;;;;5.10;4.38;;;;;;;14.63;92.50;101104.78;5091423;28;20366;-56
2023/08/10 03:59:45;;;;;;;5.82;4.40;;;;;;;14.80;91.84;101095.00;5091995;28;20386;-56
2023/08/10 04:02:11;;;;;;;7.18;5.45;;;;;;;14.58;93.24;101097.38;5091619;28;20024;-56
2023/08/10 04:04:38;;;;;;;5.13;4.53;;;;;;;14.74;92.70;101104.00;5090301;28;20020;-56
2023/08/10 04:07:07;;;;;;;6.82;5.32;;;;;;;14.81;92.68;101103.91;5095465;28;20077;-56
2023/08/10 04:09:34;;;;;;;6.55;5.20;;;;;;;14.75;92.91;101108.34;5103886;28;20055;-56
2023/08/10 04:12:01;;;;;;;6.65;4.88;;;;;;;14.73;93.71;101113.16;5095800;28;20482;-56
2023/08/10 04:14:27;;;;;;;6.25;4.70;;;;;;;14.78;92.75;101111.41;5095579;28;20466;-56
2023/08/10 04:16:53;;;;;;;5.78;4.93;;;;;;;14.90;91.83;101114.16;5095289;28;20499;-56
2023/08/10 04:19:19;;;;;;;4.15;3.75;;;;;;;15.07;90.95;101116.22;5095172;28;20577;-56
2023/08/10 04:21:45;;;;;;;5.13;4.43;;;;;;;15.16;90.45;101125.66;5095340;28;20478;-56
2023/08/10 04:24:12;;;;;;;8.48;3.55;;;;;;;15.05;91.03;101119.97;5095416;28;20032;-56
2023/08/10 04:26:38;;;;;;;3.80;3.42;;;;;;;15.07;90.63;101124.31;5094660;28;20027;-56
2023/08/10 04:29:06;;;;;;;4.20;3.80;;;;;;;14.96;91.54;101118.63;5095086;28;20020;-56
2023/08/10 04:31:32;;;;;;;6.05;4.13;;;;;;;14.78;92.15;101127.59;5095047;28;20016;-56
2023/08/10 04:33:58;;;;;;;5.57;4.13;;;;;;;14.76;92.79;101132.34;5095210;28;20031;-56
2023/08/10 04:36:25;;;;;;;4.03;3.60;;;;;;;14.74;92.67;101120.19;5094884;28;20027;-56
2023/08/10 04:38:51;;;;;;;3.45;3.10;;;;;;;14.81;92.48;101128.16;5095198;28;20020;-56
2023/08/10 04:41:18;;;;;;;3.33;3.03;;;;;;;14.80;92.22;101127.34;5092870;28;20040;-56
2023/08/10 04:43:44;;;;;;;4.63;3.20;;;;;;;14.75;92.42;101132.59;5094018;28;20050;-56
2023/08/10 04:46:10;;;;;;;3.78;2.95;;;;;;;14.82;91.84;101129.81;5085151;28;20094;-56
2023/08/10 04:48:36;;;;;;;4.85;2.85;;;;;;;14.80;91.38;101130.03;5093039;28;20481;-56
2023/08/10 04:51:04;;;;;;;2.72;2.47;;;;;;;14.89;91.33;101130.56;5093545;28;20024;-56
2023/08/10 04:53:30;;;;;;;3.30;2.72;;;;;;;14.76;91.63;101131.53;5094182;28;20058;-56
2023/08/10 04:55:57;;;;;;;4.10;2.47;;;;;;;14.85;91.10;101132.88;5092400;28;20438;-56
2023/08/10 04:58:23;;;;;;;4.88;2.63;;;;;;;14.79;91.21;101137.31;5093279;28;20397;-56
2023/08/10 05:00:52;;;;;;;3.17;2.40;;;;;;;14.69;91.14;101131.63;5093090;28;20032;-56
2023/08/10 05:03:22;;;;;;;3.80;2.58;;;;;;;14.80;91.06;101135.44;5093465;28;20062;-56
2023/08/10 05:05:49;;;;;;;4.47;3.42;;;;;;;14.58;92.78;101128.88;5092284;28;20730;-56
2023/08/10 05:08:16;;;;;;;4.68;4.00;;;;;;;14.64;92.57;101125.28;5093263;28;20032;-56
2023/08/10 05:10:45;;;;;;;5.40;3.00;;;;;;;14.63;92.41;101123.63;5093124;28;20385;-56
2023/08/10 05:13:11;;;;;;;3.47;2.70;;;;;;;14.69;92.08;101125.41;5094296;28;20028;-56
2023/08/10 05:15:37;;;;;;;3.83;2.75;;;;;;;14.67;92.36;101128.34;5094153;28;20034;-56
2023/08/10 05:18:05;;;;;;;4.03;3.10;;;;;;;14.32;94.80;101125.38;5093555;28;20024;-56
2023/08/10 05:20:31;;;;;;;5.15;3.28;;;;;;;14.55;93.50;101121.22;5093163;28;20113;-56
2023/08/10 05:22:57;;;;;;;5.75;2.80;;;;;;;14.53;93.47;101127.66;5093410;28;20042;-56
2023/08/10 05:25:24;;;;;;;4.63;3.45;;;;;;;14.48;93.87;101130.22;5091902;28;20028;-56
2023/08/10 05:27:50;;;;;;;4.85;2.92;;;;;;;14.65;93.45;101130.44;5089186;28;20394;-56
2023/08/10 05:30:17;;;;;;;3.30;2.88;;;;;;;14.70;93.02;101127.88;5093035;28;20497;-56
2023/08/10 05:32:44;;;;;;;2.92;2.63;;;;;;;14.63;93.81;101127.16;5093590;28;20455;-56
2023/08/10 05:35:11;;;;;;;3.55;3.22;;;;;;;14.85;92.58;101124.81;5098705;28;20092;-56
2023/08/10 05:37:40;;;;;;;3.00;2.65;;;;;;;15.01;91.94;101128.75;5092230;28;20024;-56
2023/08/10 05:40:10;;;;;;;4.25;2.80;;;;;;;14.99;91.71;101128.13;5091464;28;20366;-56
2023/08/10 05:42:38;;;;;;;4.78;3.00;;;;;;;14.92;92.50;101127.41;5091282;28;20435;-56
2023/08/10 05:45:15;;;;;;;3.20;2.88;;;;;;;14.95;92.64;101125.09;5093928;28;20077;-56
2023/08/10 05:47:42;;;;;;;3.88;2.97;;;;;;;14.91;93.05;101123.06;5093051;28;20035;-56
2023/08/10 05:50:09;;;;;;;3.72;2.83;;;;;;;14.99;92.78;101123.59;5092540;28;20033;-56
2023/08/10 05:52:35;;;;;;;5.65;2.90;;;;;;;15.08;91.97;101129.47;5092250;28;20040;-56
2023/08/10 05:55:01;;;;;;;4.32;2.92;;;;;;;15.07;92.21;101121.63;5092685;28;20032;-56
2023/08/10 05:57:28;;;;;;;6.22;3.75;;;;;;;15.03;92.72;101119.38;5089078;28;20024;-56
2023/08/10 05:59:54;;;;;;;4.43;3.15;;;;;;;15.09;92.37;101125.72;5092308;28;20036;-56
2023/08/10 06:02:20;;;;;;;5.32;3.78;;;;;;;15.11;92.07;101122.81;5092192;28;20032;-56
2023/08/10 06:04:46;;;;;;;3.55;2.63;;;;;;;15.04;92.38;101123.69;5093424;28;20035;-56
2023/08/10 06:07:13;;;;;;;3.00;2.70;;;;;;;15.08;92.32;101123.25;5092975;28;20469;-56
2023/08/10 06:09:39;;;;;;;3.50;2.88;;;;;;;15.12;92.12;101119.88;5093090;28;20032;-56
2023/08/10 06:12:06;;;;;;;5.68;3.05;;;;;;;15.11;91.76;101117.41;5090809;28;20040;-56
2023/08/10 06:14:32;;;;;;;5.38;3.10;;;;;;;14.93;92.44;101121.78;5091795;28;20027;-56
2023/08/10 06:16:59;;;;;;;3.80;2.45;;;;;;;15.02;91.70;101123.13;5089595;28;20081;-56
2023/08/10 06:19:25;;;;;;;2.47;2.17;;;;;;;15.01;91.89;101120.66;5092077;28;20028;-56
2023/08/10 06:21:52;;;;;;;2.63;2.15;;;;;;;14.93;92.27;101121.78;5091927;28;20111;-56
2023/08/10 06:24:18;;;;;;;2.95;2.33;;;;;;;14.91;92.32;101121.19;5091966;28;20059;-56
2023/08/10 06:26:44;;;;;;;2.42;2.20;;;;;;;14.88;93.15;101118.13;5090000;28;20037;-56
2023/08/10 06:29:10;;;;;;;4.68;2.88;;;;;;;14.90;93.01;101113.34;5089419;28;20055;-56
2023/08/10 06:31:37;;;;;;;2.60;2.40;;;;;;;14.90;93.51;101114.16;5091596;28;20024;-56
2023/08/10 06:34:03;;;;;;;3.78;2.40;;;;;;;14.94;93.67;101122.63;5091699;28;20035;-56
2023/08/10 06:36:30;;;;;;;2.85;2.63;;;;;;;14.82;94.22;101111.75;5091362;28;20050;-56
2023/08/10 06:38:57;;;;;;;3.17;2.35;;;;;;;14.92;93.51;101109.34;5092662;28;20089;-56
2023/08/10 06:41:23;;;;;;;2.35;2.10;;;;;;;14.88;94.01;101113.56;5072449;28;20047;-56
2023/08/10 06:43:50;;;;;;;2.95;2.17;;;;;;;14.94;93.78;101114.53;5085508;28;20082;-56
2023/08/10 06:46:16;;;;;;;2.67;2.15;;;;;;;14.93;94.18;101121.78;5091073;28;20016;-56
2023/08/10 06:48:43;;;;;;;2.72;2.10;;;;;;;14.81;93.97;101123.59;5091170;28;20040;-56
2023/08/10 06:51:09;;;;;;;2.80;2.00;;;;;;;14.95;93.44;101117.00;5090274;28;20032;-56
2023/08/10 06:53:35;;;;;;;2.78;2.10;;;;;;;14.88;93.86;101120.81;5091312;28;20071;-56
2023/08/10 06:56:03;;;;;;;2.88;2.33;;;;;;;14.84;94.22;101116.94;5088447;28;20094;-56
2023/08/10 06:58:29;;;;;;;3.13;2.20;;;;;;;14.73;95.53;101116.66;5089591;28;20035;-56
2023/08/10 07:00:56;;;;;;;2.40;2.13;;;;;;;14.92;94.82;101101.28;5089130;28;20112;-56
2023/08/10 07:03:22;;;;;;;3.20;2.25;;;;;;;14.86;95.81;101102.19;5091113;28;20027;-56
2023/08/10 07:05:49;;;;;;;2.10;1.90;;;;;;;14.89;95.52;101104.44;5092185;28;20032;-56
2023/08/10 07:08:15;;;;;;;2.97;2.28;;;;;;;14.89;95.28;101096.34;5090454;28;20021;-56
2023/08/10 07:10:41;;;;;;;2.92;2.25;;;;;;;14.84;95.99;101096.22;5089334;28;20067;-56
2023/08/10 07:13:08;;;;;;;2.67;1.90;;;;;;;14.84;95.54;101095.38;5089079;28;20036;-56
2023/08/10 07:15:34;;;;;;;2.22;2.00;;;;;;;14.94;95.33;101091.09;5094397;28;20442;-56
2023/08/10 07:18:01;;;;;;;2.45;2.10;;;;;;;14.93;95.31;101091.31;5079612;28;20026;-56
2023/08/10 07:20:27;;;;;;;2.80;2.28;;;;;;;14.90;95.71;101097.16;5092147;28;20028;-56
2023/08/10 07:22:53;;;;;;;3.05;2.30;;;;;;;14.95;95.88;101102.69;5090072;28;20036;-56
2023/08/10 07:25:20;;;;;;;2.35;1.70;;;;;;;15.00;95.56;101100.97;5091259;28;20051;-56
2023/08/10 07:27:47;;;;;;;3.38;2.60;;;;;;;14.83;96.70;101096.44;5089084;28;20400;-56
2023/08/10 07:30:13;;;;;;;2.75;2.30;;;;;;;14.77;97.06;101098.19;5089551;28;20511;-56
2023/08/10 07:32:43;;;;;;;2.15;1.95;;;;;;;14.86;96.50;101101.38;5089543;28;20024;-56
2023/08/10 07:35:09;;;;;;;3.00;1.75;;;;;;;14.92;96.30;101106.66;5090108;28;20624;-56
2023/08/10 07:37:36;;;;;;;3.33;2.00;;;;;;;14.88;96.71;101108.19;5090815;28;20112;-56
2023/08/10 07:40:07;;;;;;;2.60;2.20;;;;;;;14.94;96.50;101109.16;5091079;28;20032;-57
2023/08/10 07:42:34;;;;;;;2.33;2.03;;;;;;;14.95;96.69;101108.09;5095321;28;20048;-56
2023/08/10 07:45:00;;;;;;;3.72;2.30;;;;;;;15.08;96.00;101107.06;5093825;28;20020;-56
2023/08/10 07:47:26;;;;;;;2.88;1.90;;;;;;;15.05;96.27;101100.28;5094264;28;20032;-56
2023/08/10 07:49:52;;;;;;;2.75;1.70;;;;;;;15.09;95.97;101103.31;5099415;28;20039;-56
2023/08/10 07:52:19;;;;;;;1.83;1.73;;;;;;;14.99;96.50;101103.88;5095694;28;20513;-56
2023/08/10 07:54:45;;;;;;;2.40;2.00;;;;;;;15.02;96.65;101098.84;5094590;28;20118;-56
2023/08/10 07:57:11;;;;;;;2.15;1.77;;;;;;;15.10;96.02;101102.25;5093538;28;20032;-56
2023/08/10 07:59:38;;;;;;;1.58;1.40;;;;;;;15.15;95.51;101102.41;5094904;28;20126;-56
2023/08/10 08:02:04;;;;;;;2.10;1.67;;;;;;;15.03;96.31;101107.75;5093484;28;20032;-56
2023/08/10 08:04:30;;;;;;;1.70;1.50;;;;;;;15.06;95.96;101099.22;5095728;28;20028;-56
2023/08/10 08:06:56;;;;;;;2.08;1.52;;;;;;;15.00;96.30;101103.66;5101783;28;20079;-56
2023/08/10 08:09:23;;;;;;;2.95;1.80;;;;;;;15.02;97.04;101098.03;5097711;28;20032;-56
2023/08/10 08:11:49;;;;;;;1.60;1.50;;;;;;;14.96;96.83;101097.06;5094412;28;20063;-56
2023/08/10 08:14:16;;;;;;;1.70;1.30;;;;;;;15.08;95.97;101097.13;5094586;28;20027;-56
2023/08/10 08:16:42;;;;;;;2.47;1.73;;;;;;;15.11;95.92;101101.25;5091725;28;20386;-56
2023/08/10 08:19:08;;;;;;;3.03;1.42;;;;;;;15.02;96.61;101096.16;5093119;28;20500;-56
2023/08/10 08:21:35;;;;;;;2.58;1.83;;;;;;;15.10;96.14;101088.78;5094199;28;20359;-56
2023/08/10 08:24:03;;;;;;;2.90;1.63;;;;;;;15.04;95.96;101091.34;5100911;28;20035;-56
2023/08/10 08:26:32;;;;;;;1.38;1.17;;;;;;;15.10;96.44;101088.78;5101952;28;20032;-56
2023/08/10 08:28:59;;;;;;;1.65;1.35;;;;;;;15.04;96.24;101090.53;5093973;28;20034;-56
2023/08/10 08:31:27;;;;;;;1.23;1.08;;;;;;;15.10;96.12;101089.59;5092492;28;20115;-56
2023/08/10 08:33:54;;;;;;;1.88;1.50;;;;;;;15.12;96.00;101097.50;5093930;28;20028;-56
2023/08/10 08:36:20;;;;;;;1.20;1.02;;;;;;;15.08;95.96;101099.81;5093958;28;20179;-56
2023/08/10 08:38:46;;;;;;;1.30;0.95;;;;;;;15.09;96.31;101096.06;5092367;28;20062;-56
2023/08/10 08:41:18;;;;;;;1.00;0.90;;;;;;;15.02;96.44;101098.03;5093369;28;20040;-56
2023/08/10 08:43:47;;;;;;;1.08;0.98;;;;;;;15.00;96.49;101089.38;5093713;28;20115;-56
2023/08/10 08:46:16;;;;;;;2.53;1.35;;;;;;;15.09;96.19;101089.84;5092823;28;20024;-56
2023/08/10 08:48:42;;;;;;;1.83;1.00;;;;;;;15.00;96.67;101090.19;5093669;28;20024;-56
2023/08/10 08:51:09;;;;;;;1.15;0.98;;;;;;;15.09;96.25;101087.16;5093628;28;20476;-56
2023/08/10 08:53:37;;;;;;;1.10;0.93;;;;;;;15.21;95.81;101085.31;5094638;28;20482;-56
2023/08/10 08:56:03;;;;;;;1.00;0.80;;;;;;;15.21;95.72;101088.00;5092919;28;20052;-56
2023/08/10 08:58:29;;;;;;;1.02;0.93;;;;;;;15.20;95.77;101083.66;5100071;28;20444;-56
2023/08/10 09:00:56;;;;;;;1.00;0.90;;;;;;;15.26;95.46;101080.88;5075942;28;20440;-56
2023/08/10 09:03:26;;;;;;;0.90;0.70;;;;;;;15.29;95.39;101083.09;5093401;28;20038;-56
2023/08/10 09:05:53;;;;;;;0.98;0.80;;;;;;;15.30;95.22;101081.22;5093076;28;20032;-56
2023/08/10 09:08:20;;;;;;;0.98;0.80;;;;;;;15.24;95.51;101074.06;5094510;28;20033;-56
2023/08/10 09:10:48;;;;;;;1.25;0.98;;;;;;;15.28;95.67;101076.06;5089985;28;20028;-56
2023/08/10 09:13:21;;;;;;;0.77;0.60;;;;;;;15.22;95.60;101081.56;5093495;28;20172;-56
2023/08/10 09:16:03;;;;;;;0.85;0.60;;;;;;;15.24;95.60;101084.84;5096570;28;20078;-56
2023/08/10 09:18:34;;;;;;;0.82;0.75;;;;;;;15.33;94.93;101078.09;5093421;28;20036;-56
2023/08/10 09:21:12;;;;;;;0.60;0.60;;;;;;;15.37;94.74;101084.63;5077911;28;20364;-56
2023/08/10 09:23:38;;;;;;;0.68;0.68;;;;;;;15.40;94.91;101086.06;5093319;28;20040;-57
2023/08/10 09:26:12;;;;;;;0.75;0.60;;;;;;;15.45;94.34;101092.41;5092043;28;20353;-56
2023/08/10 09:28:38;;;;;;;0.65;0.65;;;;;;;15.50;94.02;101097.94;5088621;28;20531;-56
2023/08/10 09:31:09;;;;;;;0.73;0.55;;;;;;;15.54;94.46;101091.00;5093576;28;20032;-57
2023/08/10 09:33:37;;;;;;;0.50;0.50;;;;;;;15.58;93.82;101092.19;5092911;28;20040;-56
2023/08/10 09:36:06;;;;;;;0.75;0.68;;;;;;;15.69;92.93;101093.28;5091585;28;20028;-56
2023/08/10 09:38:33;;;;;;;0.60;0.60;;;;;;;15.71;93.03;101093.03;5067458;22;20118;-56
2023/08/10 09:41:10;;;;;;;0.60;0.50;;;;;;;15.77;92.32;101089.44;5051747;28;20126;-56
2023/08/10 09:43:38;;;;;;;0.50;0.50;;;;;;;15.73;91.81;101093.66;5050683;28;20040;-56
2023/08/10 09:46:10;;;;;;;0.65;0.40;;;;;;;15.75;92.46;101083.44;5052449;28;20029;-56
2023/08/10 09:48:37;;;;;;;0.40;0.40;;;;;;;15.72;92.40;101086.63;5056729;28;20036;-56
2023/08/10 09:51:05;;;;;;;2.40;0.47;;;;;;;15.74;92.61;101084.50;5063379;28;20082;-56
2023/08/10 09:53:33;;;;;;;0.45;0.40;;;;;;;15.79;93.02;101087.31;5052239;28;20028;-56
2023/08/10 09:56:00;;;;;;;0.60;0.40;;;;;;;15.85;92.24;101091.78;5051434;28;20485;-56
2023/08/10 09:58:27;;;;;;;0.30;0.30;;;;;;;15.84;92.13;101085.56;5050909;28;20035;-56
2023/08/10 10:00:54;;;;;;;0.40;0.40;;;;;;;15.88;92.58;101085.91;5052022;28;20048;-56
2023/08/10 10:03:22;;;;;;;0.80;0.50;;;;;;;15.87;92.06;101081.53;5052748;28;20044;-56
2023/08/10 10:05:51;;;;;;;0.43;0.40;;;;;;;15.86;92.24;101081.78;5052831;28;20032;-56
2023/08/10 10:08:18;;;;;;;0.45;0.45;;;;;;;15.94;92.18;101079.56;5052963;28;20120;-56
2023/08/10 10:10:45;;;;;;;1.20;0.52;;;;;;;16.01;91.24;101088.34;5051574;28;20104;-57
2023/08/10 10:13:15;;;;;;;0.35;0.35;;;;;;;16.00;91.75;101086.72;5052078;28;20025;-56
2023/08/10 10:15:45;;;;;;;0.35;0.35;;;;;;;15.91;91.77;101085.44;5041578;28;20033;-56
2023/08/10 10:18:13;;;;;;;0.40;0.40;;;;;;;15.95;91.97;101092.00;5051900;28;20039;-56
2023/08/10 10:20:44;;;;;;;0.60;0.30;;;;;;;15.99;91.62;101087.78;5046354;28;20063;-56
2023/08/10 10:23:30;;;;;;;0.28;0.28;;;;;;;15.85;92.62;101086.38;5051469;28;20036;-56
2023/08/10 10:25:59;;;;;;;0.43;0.40;;;;;;;15.90;93.19;101078.38;5051077;28;20161;-56
2023/08/10 10:28:28;;;;;;;0.28;0.28;;;;;;;16.01;92.85;101090.25;5047304;28;20032;-56
2023/08/10 10:31:12;;;;;;;0.43;0.40;;;;;;;15.82;94.03;101076.88;5051472;28;20104;-56
2023/08/10 10:33:55;;;;;;;0.93;0.40;;;;;;;15.76;94.02;101075.09;5049182;28;20115;-56
2023/08/10 10:36:21;;;;;;;0.98;0.40;;;;;;;15.78;94.24;101082.97;5044769;28;20380;-56
2023/08/10 10:38:53;;;;;;;0.75;0.30;;;;;;;15.94;93.68;101081.44;5050505;28;20060;-56
2023/08/10 10:41:31;;;;;;;0.20;0.20;;;;;;;15.93;92.98;101079.78;5051044;28;20106;-56
2023/08/10 10:44:04;;;;;;;0.30;0.30;;;;;;;15.91;92.55;101079.22;5050386;28;20086;-56
2023/08/10 10:46:33;;;;;;;0.70;0.20;;;;;;;15.86;92.82;101082.59;5051100;28;20510;-56
2023/08/10 10:49:00;;;;;;;0.30;0.30;;;;;;;15.84;93.23;101076.63;5051313;28;20510;-56
2023/08/10 10:51:29;;;;;;;0.40;0.40;;;;;;;15.81;93.24;101074.38;5052414;28;20115;-56
2023/08/10 10:53:56;;;;;;;0.28;0.28;;;;;;;15.88;92.58;101079.66;5051128;28;20036;-56
2023/08/10 10:56:24;;;;;;;0.20;0.20;;;;;;;15.94;91.58;101076.88;5049750;28;20112;-56
2023/08/10 10:58:51;;;;;;;0.30;0.30;;;;;;;15.76;92.47;101083.19;5036666;28;20103;-56
2023/08/10 11:01:23;;;;;;;1.48;0.30;;;;;;;15.88;92.21;101082.38;5051533;28;20029;-56
2023/08/10 11:03:54;;;;;;;0.30;0.30;;;;;;;15.92;92.29;101084.38;5050713;28;20041;-56
2023/08/10 11:06:21;;;;;;;0.20;0.20;;;;;;;15.94;92.11;101073.34;5040475;28;20029;-56
2023/08/10 11:08:53;;;;;;;0.22;0.22;;;;;;;15.90;91.94;101075.69;5049670;28;20067;-56
2023/08/10 11:11:19;;;;;;;0.73;0.30;;;;;;;16.00;90.91;101067.81;5049699;28;20029;-56
2023/08/10 11:13:45;;;;;;;0.20;0.20;;;;;;;15.91;90.97;101071.94;5050605;28;20036;-56
2023/08/10 11:16:12;;;;;;;0.20;0.20;;;;;;;15.95;91.43;101073.09;5037211;28;20113;-56
2023/08/10 11:18:39;;;;;;;0.20;0.20;;;;;;;15.97;91.23;101072.88;5050670;28;20025;-56
2023/08/10 11:21:09;;;;;;;0.20;0.20;;;;;;;15.99;90.73;101063.50;5050486;28;20029;-56
2023/08/10 11:23:38;;;;;;;0.52;0.30;;;;;;;15.92;90.95;101070.88;5049424;28;20043;-56
2023/08/10 11:26:05;;;;;;;0.20;0.20;;;;;;;15.99;90.77;101079.69;5050347;28;20078;-56